KAUG

Augusta State Airport

Augusta, Maine, USA
METAR KAUG 190853Z AUTO 01007KT 10SM OVC006 12/11 A2992 RMK AO2 SLP130 T01170111 53016
Observed Flight Rules
Sep-19 @ 08:53 UTC (10 minutes ago) Instrument Flight Rules
Wind Visibility Clouds
10° at 7 knots 10 miles
  • Overcast at 600' AGL
Temperatures Readings
Current 12°C / 54°F
Dewpoint 11°C / 52°F
Humidity 94%
Altimeter 29.92" Hg
Pressure 1013 hPa
Elevation 109
METAR KAUG 190853Z AUTO 01007KT 10SM OVC006 12/11 A2992 RMK AO2 SLP130 T01170111 53016
Observed Flight Rules
Sep-19 @ 08:53 UTC
(10 minutes ago)
IFR
Wind Visibility
10° at 7 knots 10 miles
Clouds
  • Overcast at 600' AGL
Temperature Dewpoint
12°C / 54°F 11°C / 52°F
Humidity Altimeter Pressure
94% 29.92" Hg 1013 hPa